Time;durP1;ratioP1;P1;durP2;ratioP2;P2;SDS_P1;SDS_P2;PMS_P1;PMS_P2;Temp;Humidity;BMP_temperature;BMP_pressure;BME280_temperature;BME280_humidity;BME280_pressure;Samples;Min_cycle;Max_cycle;Signal;HPM_P1;HPM_P2
2023/04/17 04:04:03;;;;;;;3.30;2.90;;;8.80;99.90;;;;;;6021211;23;20183;-66
2023/04/17 04:06:28;;;;;;;5.43;4.60;;;8.90;99.90;;;;;;4956739;29;20208;-66
2023/04/17 04:08:55;;;;;;;5.73;4.80;;;8.90;99.90;;;;;;4958154;29;20300;-65
2023/04/17 04:11:20;;;;;;;5.20;4.70;;;8.90;99.90;;;;;;4957765;29;20172;-65
2023/04/17 04:13:46;;;;;;;4.53;4.13;;;8.90;99.90;;;;;;4957647;29;20627;-65
2023/04/17 04:16:12;;;;;;;5.73;4.40;;;8.90;99.90;;;;;;4957388;29;20177;-66
2023/04/17 04:18:37;;;;;;;3.80;3.50;;;8.90;99.90;;;;;;4957141;29;20176;-66
2023/04/17 04:21:03;;;;;;;5.00;4.50;;;8.90;99.90;;;;;;4939911;29;20175;-65
2023/04/17 04:23:29;;;;;;;6.10;3.53;;;8.90;99.90;;;;;;4956991;29;20173;-65
2023/04/17 04:26:00;;;;;;;4.53;4.13;;;8.90;99.90;;;;;;4956369;29;20205;-65
2023/04/17 04:28:26;;;;;;;5.13;4.05;;;8.90;99.90;;;;;;4957106;29;20199;-65
2023/04/17 04:30:52;;;;;;;4.28;3.88;;;8.90;99.90;;;;;;4957037;29;20204;-67
2023/04/17 04:33:21;;;;;;;6.33;5.73;;;8.90;99.90;;;;;;4956567;29;20693;-65
2023/04/17 04:35:47;;;;;;;6.35;5.75;;;8.90;99.90;;;;;;4956025;29;20818;-64
2023/04/17 04:38:14;;;;;;;5.35;4.82;;;8.80;99.90;;;;;;4956916;29;20228;-64
2023/04/17 04:40:42;;;;;;;4.38;3.97;;;8.80;99.90;;;;;;4956859;29;20196;-64
2023/04/17 04:43:08;;;;;;;3.70;3.40;;;8.80;99.90;;;;;;4955422;29;20247;-64
2023/04/17 04:45:34;;;;;;;7.18;5.65;;;8.80;99.90;;;;;;4956195;29;20293;-64
2023/04/17 04:47:59;;;;;;;4.13;3.50;;;8.80;99.90;;;;;;4956789;29;20252;-64
2023/04/17 04:50:25;;;;;;;5.97;5.03;;;8.80;99.90;;;;;;4956884;29;20181;-65
2023/04/17 04:52:50;;;;;;;6.93;5.40;;;8.80;99.90;;;;;;4956645;29;20204;-64
2023/04/17 04:55:16;;;;;;;8.17;5.93;;;8.80;99.90;;;;;;4956432;29;20293;-65
2023/04/17 04:57:42;;;;;;;3.37;3.17;;;8.80;99.90;;;;;;4956391;29;20539;-65
2023/04/17 05:00:08;;;;;;;4.70;3.40;;;8.80;99.90;;;;;;4938210;29;20177;-65
2023/04/17 05:02:33;;;;;;;7.07;5.55;;;8.80;99.90;;;;;;4956138;29;20548;-64
2023/04/17 05:04:59;;;;;;;7.40;5.43;;;8.80;99.90;;;;;;4955166;29;20291;-65
2023/04/17 05:07:25;;;;;;;6.67;4.37;;;8.80;99.90;;;;;;4956294;29;20181;-65
2023/04/17 05:09:50;;;;;;;4.93;4.43;;;8.80;99.90;;;;;;4955658;29;20196;-64
2023/04/17 05:12:16;;;;;;;6.00;4.40;;;8.80;99.90;;;;;;4956443;29;20189;-64
2023/04/17 05:14:41;;;;;;;4.23;3.90;;;8.80;99.90;;;;;;4954599;28;20674;-70
2023/04/17 05:17:07;;;;;;;6.50;4.43;;;8.80;99.90;;;;;;4956075;29;20173;-69
2023/04/17 05:19:32;;;;;;;9.23;4.90;;;8.80;99.90;;;;;;4955927;29;20543;-70
2023/04/17 05:21:58;;;;;;;3.20;3.00;;;8.80;99.90;;;;;;4956133;29;20256;-65
2023/04/17 05:24:24;;;;;;;3.93;3.53;;;8.80;99.90;;;;;;4955667;29;20377;-65
2023/04/17 05:26:49;;;;;;;5.40;4.53;;;8.80;99.90;;;;;;4955976;29;20643;-66
2023/04/17 05:29:15;;;;;;;4.70;4.27;;;8.80;99.90;;;;;;4956068;29;20208;-65
2023/04/17 05:31:41;;;;;;;5.57;3.97;;;8.80;99.90;;;;;;4955700;29;20555;-66
2023/04/17 05:34:06;;;;;;;8.10;5.67;;;8.80;99.90;;;;;;4955499;29;20208;-66
2023/04/17 05:36:32;;;;;;;6.83;5.00;;;8.90;99.90;;;;;;4955934;29;20231;-67
2023/04/17 05:38:58;;;;;;;6.73;5.53;;;8.90;99.90;;;;;;4956146;29;20176;-66
2023/04/17 05:41:23;;;;;;;5.20;4.70;;;8.90;99.90;;;;;;4956255;29;20492;-66
2023/04/17 05:43:49;;;;;;;6.90;4.93;;;8.90;99.90;;;;;;4955905;29;20181;-67
2023/04/17 05:46:15;;;;;;;5.78;5.28;;;8.90;99.90;;;;;;4956413;29;20329;-65
2023/04/17 05:48:41;;;;;;;6.77;4.70;;;8.90;99.90;;;;;;4955823;29;20285;-68
2023/04/17 05:51:06;;;;;;;4.83;4.43;;;9.00;99.90;;;;;;4955947;29;20284;-65
2023/04/17 05:53:32;;;;;;;5.30;4.80;;;9.00;99.90;;;;;;4955493;29;20200;-65
2023/04/17 05:55:57;;;;;;;4.77;4.23;;;9.00;99.90;;;;;;4956175;29;20662;-65
2023/04/17 05:58:23;;;;;;;8.10;5.70;;;9.10;99.90;;;;;;4960096;29;20176;-65
2023/04/17 06:00:49;;;;;;;6.77;4.60;;;9.10;99.90;;;;;;4946489;29;20334;-65
2023/04/17 06:03:15;;;;;;;6.03;4.47;;;9.10;99.90;;;;;;4945465;29;20196;-66
2023/04/17 06:05:41;;;;;;;5.47;4.50;;;9.10;99.90;;;;;;4963281;29;20362;-65
2023/04/17 06:08:07;;;;;;;4.80;4.40;;;9.20;99.90;;;;;;4962784;29;20219;-65
2023/04/17 06:10:33;;;;;;;5.43;4.82;;;9.20;99.90;;;;;;4961376;29;20547;-65
2023/04/17 06:12:59;;;;;;;5.60;4.53;;;9.20;99.90;;;;;;4956303;29;20193;-64
2023/04/17 06:15:26;;;;;;;5.07;3.80;;;9.20;99.90;;;;;;4956892;29;20197;-65
2023/04/17 06:17:52;;;;;;;4.47;3.45;;;9.20;99.90;;;;;;4956038;29;20204;-64
2023/04/17 06:20:17;;;;;;;6.40;4.80;;;9.20;99.90;;;;;;4956142;29;20563;-66
2023/04/17 06:22:45;;;;;;;5.97;4.20;;;9.20;99.90;;;;;;4955366;29;20177;-65
2023/04/17 06:25:11;;;;;;;5.07;4.28;;;9.30;99.90;;;;;;4955124;29;20196;-66
2023/04/17 06:27:37;;;;;;;8.53;5.83;;;9.30;99.90;;;;;;4954936;29;20536;-66
2023/04/17 06:30:03;;;;;;;6.30;4.77;;;9.30;99.90;;;;;;4955329;29;20498;-65
2023/04/17 06:32:28;;;;;;;9.63;7.57;;;9.30;99.90;;;;;;4955470;29;20196;-65
2023/04/17 06:34:54;;;;;;;4.63;4.23;;;9.30;99.90;;;;;;4956256;29;20197;-66
2023/04/17 06:37:19;;;;;;;5.10;3.60;;;9.20;99.90;;;;;;4956385;29;20173;-66
2023/04/17 06:39:45;;;;;;;6.20;5.10;;;9.20;99.90;;;;;;4955247;29;20173;-65
2023/04/17 06:42:11;;;;;;;5.40;4.27;;;9.20;99.90;;;;;;4955156;29;20256;-66
2023/04/17 06:44:36;;;;;;;5.50;4.20;;;9.20;99.90;;;;;;4954656;29;20544;-66
2023/04/17 06:47:03;;;;;;;4.40;3.13;;;9.10;99.90;;;;;;4955192;29;20504;-66
2023/04/17 06:49:32;;;;;;;10.30;5.43;;;9.20;99.90;;;;;;4955271;29;20231;-66
2023/04/17 06:51:58;;;;;;;7.63;4.70;;;9.20;99.90;;;;;;4954489;29;20192;-65
2023/04/17 06:54:24;;;;;;;3.70;3.35;;;9.10;99.90;;;;;;4954638;29;20201;-66
2023/04/17 06:56:50;;;;;;;6.43;5.63;;;9.20;99.90;;;;;;4955271;29;20179;-66
2023/04/17 06:59:16;;;;;;;5.87;4.10;;;9.20;99.90;;;;;;4955557;29;20682;-66
2023/04/17 07:01:42;;;;;;;4.60;3.78;;;9.20;99.90;;;;;;4954970;29;20176;-66
2023/04/17 07:04:08;;;;;;;4.53;4.17;;;9.20;99.90;;;;;;4954135;29;20535;-66
2023/04/17 07:06:35;;;;;;;5.38;3.97;;;9.20;99.90;;;;;;4954317;29;20247;-66
2023/04/17 07:09:01;;;;;;;5.90;4.80;;;9.20;99.90;;;;;;4954752;29;20165;-67
2023/04/17 07:11:26;;;;;;;4.07;3.70;;;9.20;99.90;;;;;;4954729;29;20180;-66
2023/04/17 07:13:52;;;;;;;7.20;5.67;;;9.30;99.90;;;;;;4954220;29;20425;-66
2023/04/17 07:16:17;;;;;;;7.13;3.53;;;9.40;99.90;;;;;;4955025;29;20200;-66
2023/04/17 07:18:43;;;;;;;7.03;5.53;;;9.40;99.90;;;;;;4954797;29;20184;-66
2023/04/17 07:21:09;;;;;;;5.10;4.07;;;9.40;99.90;;;;;;4937729;29;20184;-66
2023/04/17 07:23:35;;;;;;;4.90;4.50;;;9.50;99.90;;;;;;4954311;29;20271;-66
2023/04/17 07:26:00;;;;;;;4.37;3.90;;;9.50;99.90;;;;;;4954594;29;20190;-66
2023/04/17 07:28:26;;;;;;;9.50;4.70;;;9.60;99.90;;;;;;4954079;29;20421;-66
2023/04/17 07:30:53;;;;;;;6.70;6.07;;;9.60;99.90;;;;;;4954635;29;20517;-66
2023/04/17 07:33:19;;;;;;;4.85;4.45;;;9.70;99.90;;;;;;4954300;29;20200;-66
2023/04/17 07:35:45;;;;;;;4.18;3.85;;;9.70;99.90;;;;;;4954607;29;20193;-66
2023/04/17 07:38:11;;;;;;;6.00;5.50;;;9.70;99.90;;;;;;4955709;28;20243;-67
2023/04/17 07:40:37;;;;;;;5.57;4.33;;;9.70;99.90;;;;;;4958146;29;20169;-66
2023/04/17 07:43:02;;;;;;;7.27;6.33;;;9.70;99.90;;;;;;4957277;29;20782;-67
2023/04/17 07:45:28;;;;;;;7.60;4.43;;;9.70;99.90;;;;;;4957706;29;20197;-66
2023/04/17 07:47:54;;;;;;;6.93;3.80;;;9.80;99.90;;;;;;4957989;29;20177;-66
2023/04/17 07:50:20;;;;;;;6.30;4.30;;;9.80;99.90;;;;;;4958030;29;20274;-66
2023/04/17 07:52:46;;;;;;;3.55;3.30;;;9.80;99.90;;;;;;4957880;29;20279;-66
2023/04/17 07:55:12;;;;;;;3.53;3.23;;;9.80;99.90;;;;;;4957315;29;20319;-66
2023/04/17 07:57:41;;;;;;;7.07;3.55;;;9.90;99.90;;;;;;4957586;29;20184;-65
2023/04/17 08:00:12;;;;;;;4.90;4.47;;;9.90;99.90;;;;;;4957432;29;20660;-66
2023/04/17 08:02:38;;;;;;;3.45;3.15;;;9.90;99.90;;;;;;4957881;29;20236;-64
2023/04/17 08:05:05;;;;;;;4.80;4.40;;;10.00;99.90;;;;;;4956966;29;20229;-66
2023/04/17 08:07:31;;;;;;;4.28;3.63;;;10.00;99.90;;;;;;4957770;29;20253;-66
2023/04/17 08:09:57;;;;;;;3.57;3.03;;;10.00;99.90;;;;;;4957447;29;20204;-66
2023/04/17 08:12:22;;;;;;;3.80;2.97;;;10.10;99.90;;;;;;4957249;29;20205;-66
2023/04/17 08:14:48;;;;;;;4.87;4.50;;;10.10;99.90;;;;;;4957090;29;20571;-67
2023/04/17 08:17:14;;;;;;;3.73;3.43;;;10.10;99.90;;;;;;4957918;29;20182;-66
2023/04/17 08:19:40;;;;;;;3.22;2.95;;;10.20;99.90;;;;;;4957039;29;20177;-65
2023/04/17 08:22:06;;;;;;;5.67;3.10;;;10.20;99.90;;;;;;4957422;29;20257;-66
2023/04/17 08:24:32;;;;;;;4.93;4.32;;;10.20;99.90;;;;;;4956800;29;20592;-66
2023/04/17 08:26:58;;;;;;;6.93;3.37;;;10.20;99.90;;;;;;4957143;29;20183;-65
2023/04/17 08:29:23;;;;;;;3.77;3.20;;;10.30;99.90;;;;;;4940003;29;20540;-66
2023/04/17 08:31:49;;;;;;;3.07;2.80;;;10.40;99.90;;;;;;4957130;29;20260;-67
2023/04/17 08:34:15;;;;;;;4.40;2.60;;;10.40;99.90;;;;;;4956416;29;20224;-67
2023/04/17 08:36:41;;;;;;;4.53;4.10;;;10.40;99.90;;;;;;4957150;29;20215;-67
2023/04/17 08:39:08;;;;;;;5.80;3.00;;;10.60;99.90;;;;;;4940070;29;20183;-65
2023/04/17 08:41:46;;;;;;;3.07;2.50;;;10.70;99.90;;;;;;4957070;29;20410;-65
2023/04/17 08:44:12;;;;;;;3.00;2.83;;;10.90;99.90;;;;;;4956677;29;20434;-66
2023/04/17 08:46:38;;;;;;;3.05;2.75;;;11.00;99.90;;;;;;4956924;29;20875;-65
2023/04/17 08:49:03;;;;;;;2.37;2.27;;;11.00;99.90;;;;;;4955827;28;20201;-67
2023/04/17 08:51:30;;;;;;;3.20;2.40;;;11.20;99.90;;;;;;4956708;29;20585;-67
2023/04/17 08:53:55;;;;;;;2.70;2.10;;;11.20;99.90;;;;;;4956347;29;20185;-67
2023/04/17 08:56:21;;;;;;;3.70;3.40;;;11.10;99.90;;;;;;4939474;29;20388;-66
2023/04/17 08:58:47;;;;;;;2.60;2.40;;;11.10;99.90;;;;;;4956454;29;20182;-66
2023/04/17 09:01:19;;;;;;;3.60;2.83;;;11.10;99.90;;;;;;4956543;29;20243;-66
2023/04/17 09:03:47;;;;;;;2.38;1.92;;;11.10;99.90;;;;;;4938619;29;20192;-66
2023/04/17 09:06:14;;;;;;;2.40;2.20;;;11.20;99.90;;;;;;4956202;29;20205;-66
2023/04/17 09:09:00;;;;;;;2.87;2.67;;;11.30;99.90;;;;;;4956291;29;20496;-67
2023/04/17 09:11:27;;;;;;;3.00;2.23;;;11.40;99.90;;;;;;4956683;29;20414;-68
2023/04/17 09:13:53;;;;;;;2.83;2.38;;;11.30;99.90;;;;;;4955899;29;20465;-68
2023/04/17 09:16:19;;;;;;;2.13;1.93;;;11.50;99.90;;;;;;4956271;29;20225;-66
2023/04/17 09:18:45;;;;;;;2.73;2.53;;;11.50;99.90;;;;;;4955859;29;20421;-67
2023/04/17 09:21:13;;;;;;;3.00;2.80;;;11.50;99.90;;;;;;4956314;29;20407;-67
2023/04/17 09:23:48;;;;;;;3.33;2.77;;;11.50;99.90;;;;;;4956039;29;20179;-67
2023/04/17 09:26:16;;;;;;;5.10;3.00;;;11.50;99.90;;;;;;4956298;29;20755;-66
2023/04/17 09:29:13;;;;;;;2.60;2.40;;;11.60;99.90;;;;;;4956173;29;20406;-68
2023/04/17 09:31:41;;;;;;;2.60;2.40;;;11.80;99.90;;;;;;4955941;29;20479;-67
2023/04/17 09:34:10;;;;;;;4.83;2.53;;;11.90;99.90;;;;;;4938272;29;20434;-67
2023/04/17 09:36:37;;;;;;;2.90;2.37;;;11.90;99.90;;;;;;4955955;29;20451;-67
2023/04/17 09:39:16;;;;;;;6.33;2.50;;;11.90;99.90;;;;;;4955943;29;20895;-67
2023/04/17 09:41:42;;;;;;;3.20;2.90;;;11.90;99.90;;;;;;4956090;29;20448;-66
2023/04/17 09:44:08;;;;;;;3.03;2.73;;;12.00;99.90;;;;;;4955497;29;20473;-66
2023/04/17 09:46:36;;;;;;;2.40;2.20;;;12.10;99.90;;;;;;4955561;29;20182;-66
2023/04/17 09:49:48;;;;;;;3.57;3.23;;;12.20;99.90;;;;;;4955778;29;20374;-67
2023/04/17 09:52:14;;;;;;;2.73;2.17;;;12.20;99.90;;;;;;4955485;29;20438;-67
2023/04/17 09:54:41;;;;;;;2.20;2.00;;;12.20;99.90;;;;;;4955283;29;20420;-66
2023/04/17 09:57:08;;;;;;;2.70;2.50;;;12.20;99.90;;;;;;4955577;29;20430;-66
2023/04/17 09:59:44;;;;;;;2.00;1.60;;;12.10;99.90;;;;;;4955781;29;20430;-65
2023/04/17 10:02:12;;;;;;;2.73;2.53;;;11.90;99.90;;;;;;4954599;28;20433;-67
2023/04/17 10:04:41;;;;;;;1.70;1.60;;;11.70;99.90;;;;;;4954843;29;20426;-67
2023/04/17 10:07:07;;;;;;;2.60;2.40;;;11.70;99.90;;;;;;4955594;29;20518;-66
2023/04/17 10:09:33;;;;;;;2.80;2.50;;;11.60;99.90;;;;;;4955423;29;20426;-66
2023/04/17 10:12:00;;;;;;;2.60;2.40;;;11.50;99.90;;;;;;4955398;29;20464;-66
2023/04/17 10:14:32;;;;;;;2.40;2.10;;;11.50;99.90;;;;;;4954911;29;20833;-66
2023/04/17 10:16:58;;;;;;;2.10;2.00;;;11.40;99.90;;;;;;4954944;29;20435;-67
2023/04/17 10:19:35;;;;;;;2.70;2.50;;;11.40;99.90;;;;;;4955461;29;20902;-66
2023/04/17 10:22:18;;;;;;;2.23;2.07;;;11.40;99.90;;;;;;4955446;29;20437;-67
2023/04/17 10:24:46;;;;;;;1.63;1.53;;;11.40;99.90;;;;;;4937719;29;20480;-67
2023/04/17 10:27:26;;;;;;;2.60;2.40;;;11.40;99.90;;;;;;4937915;29;20418;-66
2023/04/17 10:29:53;;;;;;;2.13;1.93;;;11.50;99.90;;;;;;4955285;29;20544;-66
2023/04/17 10:32:19;;;;;;;2.80;2.43;;;11.60;99.90;;;;;;4954629;29;20966;-66
2023/04/17 10:34:45;;;;;;;2.63;2.53;;;11.60;99.90;;;;;;4954720;29;20426;-67
2023/04/17 10:37:14;;;;;;;2.60;2.37;;;11.60;99.90;;;;;;4955264;29;20503;-67
2023/04/17 10:39:53;;;;;;;1.90;1.80;;;11.70;99.90;;;;;;4937839;29;20519;-66
2023/04/17 10:42:20;;;;;;;2.80;2.10;;;11.80;99.90;;;;;;4955288;29;20417;-66
2023/04/17 10:44:46;;;;;;;3.33;2.13;;;11.90;99.90;;;;;;4954808;29;20447;-67
2023/04/17 10:47:15;;;;;;;2.30;2.10;;;12.00;99.90;;;;;;4954779;29;20506;-66
2023/04/17 10:49:59;;;;;;;2.30;1.93;;;12.20;99.90;;;;;;4954900;29;20477;-66
2023/04/17 10:52:41;;;;;;;1.80;1.70;;;12.40;99.90;;;;;;4955078;29;20422;-66
2023/04/17 10:55:22;;;;;;;2.60;2.23;;;12.60;99.90;;;;;;4954685;29;20515;-66
2023/04/17 10:58:03;;;;;;;4.07;2.47;;;12.90;99.90;;;;;;4955022;29;20400;-66
2023/04/17 11:00:36;;;;;;;3.00;1.90;;;13.10;99.90;;;;;;4954777;29;20430;-66
2023/04/17 11:03:03;;;;;;;1.77;1.67;;;13.20;99.90;;;;;;4937340;29;20489;-66
2023/04/17 11:05:34;;;;;;;2.20;2.00;;;13.40;99.90;;;;;;4954750;29;20591;-66
2023/04/17 11:08:00;;;;;;;1.70;1.60;;;13.50;99.90;;;;;;4955143;29;20776;-67
2023/04/17 11:10:26;;;;;;;1.80;1.70;;;13.70;99.90;;;;;;4954916;29;20423;-67
2023/04/17 11:12:52;;;;;;;2.23;2.07;;;13.90;99.90;;;;;;4956799;28;20201;-66
2023/04/17 11:15:44;;;;;;;1.47;1.47;;;14.00;99.90;;;;;;4958042;29;20440;-65
2023/04/17 11:18:11;;;;;;;2.00;1.90;;;14.20;99.90;;;;;;4954918;29;20387;-67
2023/04/17 11:20:36;;;;;;;3.00;2.70;;;14.40;99.90;;;;;;4958510;29;20405;-67
2023/04/17 11:23:03;;;;;;;1.60;1.50;;;14.60;99.90;;;;;;4958240;29;20417;-66
2023/04/17 11:25:30;;;;;;;2.43;2.23;;;14.70;99.90;;;;;;4958092;29;20209;-67
2023/04/17 11:27:57;;;;;;;2.27;2.17;;;14.70;99.90;;;;;;4957624;29;20444;-66
2023/04/17 11:30:31;;;;;;;1.20;1.10;;;14.70;99.90;;;;;;4958172;29;20380;-67
2023/04/17 11:33:02;;;;;;;2.37;2.20;;;14.80;99.90;;;;;;4958026;29;20508;-67
2023/04/17 11:35:33;;;;;;;2.13;1.70;;;14.80;99.90;;;;;;4958313;29;20433;-67
2023/04/17 11:38:05;;;;;;;2.10;2.00;;;14.70;99.90;;;;;;4958016;29;20405;-68
2023/04/17 11:40:31;;;;;;;3.60;3.07;;;14.70;99.90;;;;;;4958129;29;20804;-67
2023/04/17 11:43:01;;;;;;;2.30;2.17;;;14.60;99.90;;;;;;4957309;29;20464;-67
2023/04/17 11:45:31;;;;;;;2.20;2.10;;;14.40;99.90;;;;;;4957703;29;20256;-67
2023/04/17 11:47:56;;;;;;;2.80;2.60;;;14.20;99.90;;;;;;4957990;29;20413;-66
2023/04/17 11:50:27;;;;;;;2.20;2.10;;;14.00;99.90;;;;;;4940763;29;20505;-67
2023/04/17 11:52:56;;;;;;;2.83;2.43;;;13.80;99.90;;;;;;4940299;29;20215;-66
2023/04/17 11:55:22;;;;;;;1.97;1.80;;;13.60;99.90;;;;;;4957470;29;20486;-66
2023/04/17 11:57:50;;;;;;;3.07;2.03;;;13.40;99.90;;;;;;4957260;29;20507;-66
2023/04/17 12:00:16;;;;;;;2.43;2.00;;;13.10;99.90;;;;;;4958026;29;20645;-66
2023/04/17 12:02:42;;;;;;;3.33;3.00;;;12.90;99.90;;;;;;4957679;29;20407;-66
2023/04/17 12:05:17;;;;;;;4.10;2.13;;;12.80;99.90;;;;;;4956925;29;20463;-67
2023/04/17 12:07:42;;;;;;;2.93;2.70;;;12.60;99.90;;;;;;4957379;29;20167;-66
2023/04/17 12:10:08;;;;;;;2.67;2.47;;;12.50;99.90;;;;;;4957478;29;20423;-66
2023/04/17 12:12:34;;;;;;;2.33;2.17;;;12.50;99.90;;;;;;4957160;29;20207;-67
2023/04/17 12:15:00;;;;;;;2.17;2.00;;;12.50;99.90;;;;;;4956992;29;20914;-66
2023/04/17 12:17:26;;;;;;;2.33;1.90;;;12.50;99.90;;;;;;4957247;29;20218;-65
2023/04/17 12:19:52;;;;;;;2.57;2.37;;;12.30;99.90;;;;;;4956867;29;20427;-67
2023/04/17 12:22:18;;;;;;;2.10;1.90;;;12.20;99.90;;;;;;4957248;29;20774;-66
2023/04/17 12:24:43;;;;;;;2.13;1.97;;;12.10;99.90;;;;;;4955989;28;20423;-69
2023/04/17 12:27:09;;;;;;;1.80;1.70;;;12.00;99.90;;;;;;4957137;29;20411;-67
2023/04/17 12:29:35;;;;;;;6.00;3.47;;;12.00;99.90;;;;;;4957096;29;20198;-68
2023/04/17 12:32:01;;;;;;;2.53;2.07;;;12.00;99.90;;;;;;4956536;29;20453;-69
2023/04/17 12:34:26;;;;;;;2.40;2.20;;;12.00;99.90;;;;;;4956060;29;20192;-72
2023/04/17 12:36:52;;;;;;;4.23;2.90;;;12.10;99.90;;;;;;4954640;29;20189;-73
2023/04/17 12:39:18;;;;;;;3.40;3.20;;;12.10;99.90;;;;;;4956805;29;20178;-66
2023/04/17 12:41:43;;;;;;;3.33;2.80;;;12.20;99.90;;;;;;4956105;29;20295;-67
2023/04/17 12:44:09;;;;;;;2.67;2.47;;;12.20;99.90;;;;;;4956393;29;20199;-66
2023/04/17 12:46:35;;;;;;;2.83;2.10;;;12.20;99.90;;;;;;4955801;29;20185;-67
2023/04/17 12:49:00;;;;;;;2.60;2.47;;;12.30;99.90;;;;;;4955492;29;20777;-67
2023/04/17 12:51:26;;;;;;;2.10;2.00;;;12.30;99.90;;;;;;4955883;29;20238;-67
2023/04/17 12:53:53;;;;;;;3.17;2.97;;;12.50;99.90;;;;;;4955451;29;20631;-67
2023/04/17 12:56:18;;;;;;;2.87;2.57;;;12.60;99.90;;;;;;4955717;29;20430;-67
2023/04/17 12:58:44;;;;;;;2.77;2.57;;;12.80;99.90;;;;;;4956235;29;20387;-67
2023/04/17 13:01:10;;;;;;;2.60;2.17;;;12.90;99.90;;;;;;4950790;29;20196;-68
2023/04/17 13:03:35;;;;;;;2.70;2.50;;;13.10;99.90;;;;;;4955612;29;20677;-67
2023/04/17 13:06:01;;;;;;;2.70;2.47;;;13.30;99.90;;;;;;4955941;29;20286;-66
2023/04/17 13:08:26;;;;;;;2.60;2.40;;;13.40;99.90;;;;;;4955107;29;20192;-67
2023/04/17 13:10:52;;;;;;;2.50;1.83;;;13.40;99.90;;;;;;4956214;29;20177;-67
2023/04/17 13:13:18;;;;;;;1.83;1.80;;;13.40;99.90;;;;;;4955749;29;20277;-67
2023/04/17 13:15:46;;;;;;;2.53;2.23;;;13.40;99.90;;;;;;4956021;29;20227;-67
2023/04/17 13:18:12;;;;;;;2.20;2.10;;;13.40;99.90;;;;;;4955855;29;20173;-68
2023/04/17 13:20:37;;;;;;;2.27;2.07;;;13.30;99.90;;;;;;4956000;29;20767;-67
2023/04/17 13:23:03;;;;;;;1.80;1.70;;;13.20;99.90;;;;;;4955560;29;20183;-67
2023/04/17 13:25:31;;;;;;;2.27;1.93;;;13.20;99.90;;;;;;4955991;29;20195;-67
2023/04/17 13:27:56;;;;;;;2.73;2.47;;;13.20;99.90;;;;;;4956097;29;20179;-67
2023/04/17 13:30:22;;;;;;;2.70;2.30;;;13.20;99.90;;;;;;4955487;29;20399;-66
2023/04/17 13:32:48;;;;;;;2.30;2.10;;;13.10;99.90;;;;;;4938366;29;20246;-67
2023/04/17 13:35:13;;;;;;;2.13;1.70;;;13.00;99.90;;;;;;4937363;29;20286;-66
2023/04/17 13:37:40;;;;;;;2.20;2.00;;;12.80;99.90;;;;;;4955663;29;20554;-67
2023/04/17 13:40:09;;;;;;;2.20;2.00;;;12.70;99.90;;;;;;4955857;29;20182;-66
2023/04/17 13:42:35;;;;;;;1.60;1.47;;;12.60;99.90;;;;;;4955784;29;20423;-67
2023/04/17 13:45:01;;;;;;;1.80;1.70;;;12.50;99.90;;;;;;4955019;29;20457;-66
2023/04/17 13:47:27;;;;;;;2.40;2.20;;;12.40;99.90;;;;;;4955475;29;20416;-66
2023/04/17 13:49:52;;;;;;;1.23;1.13;;;12.40;99.90;;;;;;4955849;29;20166;-66
2023/04/17 13:52:18;;;;;;;1.97;1.87;;;12.40;99.90;;;;;;4955510;29;20233;-67
2023/04/17 13:54:44;;;;;;;2.20;2.00;;;12.40;99.90;;;;;;4955325;29;20195;-66
2023/04/17 13:57:13;;;;;;;2.83;2.47;;;12.40;99.90;;;;;;4955648;29;20167;-66
2023/04/17 13:59:39;;;;;;;3.00;2.70;;;12.50;99.90;;;;;;4955481;29;20856;-66
2023/04/17 14:02:04;;;;;;;2.33;2.23;;;12.50;99.90;;;;;;4952765;29;20506;-66
2023/04/17 14:04:30;;;;;;;2.60;2.40;;;12.60;99.90;;;;;;4954161;29;20207;-67
2023/04/17 14:06:56;;;;;;;1.83;1.73;;;12.60;99.90;;;;;;4955829;29;20208;-66
2023/04/17 14:09:21;;;;;;;2.20;2.03;;;12.70;99.90;;;;;;4955413;29;20242;-67
2023/04/17 14:11:47;;;;;;;2.20;2.00;;;12.70;99.90;;;;;;4954757;29;20199;-66
2023/04/17 14:14:13;;;;;;;2.50;2.30;;;12.80;99.90;;;;;;4937760;29;20203;-67
2023/04/17 14:16:42;;;;;;;1.90;1.80;;;12.80;99.90;;;;;;4955811;29;20184;-66
2023/04/17 14:19:08;;;;;;;2.10;2.00;;;12.90;99.90;;;;;;4955390;29;20246;-66
2023/04/17 14:21:34;;;;;;;1.50;1.40;;;12.90;99.90;;;;;;4955064;29;20428;-66
2023/04/17 14:24:01;;;;;;;2.40;2.20;;;12.90;99.90;;;;;;4944751;29;20187;-67
2023/04/17 14:26:27;;;;;;;2.20;2.00;;;13.00;99.90;;;;;;4940366;29;20499;-66
2023/04/17 14:28:52;;;;;;;2.90;2.37;;;13.10;99.90;;;;;;4955241;29;20551;-68
2023/04/17 14:31:18;;;;;;;2.23;1.73;;;13.20;99.90;;;;;;4955633;29;20544;-66
2023/04/17 14:33:43;;;;;;;1.73;1.63;;;13.30;99.90;;;;;;4955204;29;20215;-66
2023/04/17 14:36:09;;;;;;;2.07;1.83;;;13.30;99.90;;;;;;4955553;29;20219;-67
2023/04/17 14:38:35;;;;;;;3.03;1.93;;;13.30;99.90;;;;;;4955370;29;20624;-66
2023/04/17 14:41:01;;;;;;;2.00;1.90;;;13.40;99.90;;;;;;4954930;29;20202;-66
2023/04/17 14:43:26;;;;;;;2.03;1.93;;;13.40;99.90;;;;;;4954288;29;20436;-65
2023/04/17 14:45:52;;;;;;;2.20;2.10;;;13.50;99.90;;;;;;4954645;29;20204;-69
2023/04/17 14:48:19;;;;;;;2.60;2.40;;;13.60;99.90;;;;;;4957268;28;20748;-68
2023/04/17 14:50:45;;;;;;;2.10;1.93;;;13.60;99.90;;;;;;4975183;28;20600;-68
2023/04/17 14:53:11;;;;;;;2.00;1.90;;;13.70;99.90;;;;;;4974145;28;21268;-66
2023/04/17 14:55:37;;;;;;;2.23;2.03;;;13.80;99.90;;;;;;4958500;29;20411;-66
2023/04/17 14:58:02;;;;;;;1.80;1.50;;;13.80;99.90;;;;;;4958205;29;20212;-66
2023/04/17 15:00:28;;;;;;;1.43;1.33;;;13.70;99.90;;;;;;4958613;29;20206;-67
2023/04/17 15:02:54;;;;;;;1.90;1.80;;;13.60;99.90;;;;;;4958621;29;20614;-67
2023/04/17 15:05:20;;;;;;;2.47;1.80;;;13.60;99.90;;;;;;4958072;29;20270;-66
2023/04/17 15:07:46;;;;;;;2.20;2.00;;;13.50;99.90;;;;;;4958491;29;20609;-67
2023/04/17 15:10:12;;;;;;;1.63;1.53;;;13.60;99.90;;;;;;4957644;28;20416;-66
2023/04/17 15:12:38;;;;;;;2.10;2.00;;;13.60;99.90;;;;;;4960313;28;20426;-66
2023/04/17 15:15:05;;;;;;;2.10;1.90;;;13.50;99.90;;;;;;4957760;29;20435;-67
2023/04/17 15:17:30;;;;;;;1.67;1.57;;;13.50;99.90;;;;;;4958230;29;20543;-65
2023/04/17 15:19:57;;;;;;;2.10;1.90;;;13.50;99.90;;;;;;4958280;29;20439;-66
2023/04/17 15:22:23;;;;;;;2.33;1.80;;;13.50;99.90;;;;;;4941097;29;20180;-69
2023/04/17 15:24:48;;;;;;;3.40;2.23;;;13.40;99.90;;;;;;4956221;29;20481;-66
2023/04/17 15:27:14;;;;;;;2.20;2.00;;;13.40;99.90;;;;;;4957728;29;20208;-66
2023/04/17 15:29:40;;;;;;;2.33;1.90;;;13.40;99.90;;;;;;4957601;29;20181;-64
2023/04/17 15:32:05;;;;;;;2.70;1.90;;;13.40;99.90;;;;;;4957726;29;20663;-65
2023/04/17 15:34:33;;;;;;;2.00;1.90;;;13.40;99.90;;;;;;4957597;29;20434;-65
2023/04/17 15:36:59;;;;;;;2.23;1.73;;;13.40;99.90;;;;;;4957807;29;20171;-66
2023/04/17 15:39:25;;;;;;;1.73;1.63;;;13.30;99.90;;;;;;4957788;29;20379;-68
2023/04/17 15:41:50;;;;;;;1.67;1.57;;;13.30;99.90;;;;;;4971173;28;20441;-67
2023/04/17 15:44:16;;;;;;;1.70;1.53;;;13.30;99.90;;;;;;4976400;28;20191;-67
2023/04/17 15:46:42;;;;;;;2.10;2.00;;;13.20;99.90;;;;;;4959818;28;20480;-67
2023/04/17 15:49:07;;;;;;;1.50;1.40;;;13.00;99.90;;;;;;4963633;28;20523;-67
2023/04/17 15:51:33;;;;;;;3.93;1.73;;;13.00;99.90;;;;;;4967647;28;20185;-67
2023/04/17 15:53:59;;;;;;;2.43;2.27;;;12.90;99.90;;;;;;4945632;29;20239;-67
2023/04/17 15:56:24;;;;;;;1.93;1.83;;;13.00;99.90;;;;;;4957462;29;20184;-67
2023/04/17 15:58:50;;;;;;;1.97;1.73;;;12.90;99.90;;;;;;4956508;28;20183;-66
2023/04/17 16:01:15;;;;;;;1.70;1.60;;;12.80;99.90;;;;;;4939338;29;20744;-65
2023/04/17 16:03:42;;;;;;;2.20;1.87;;;12.70;99.90;;;;;;4956126;29;20187;-68
2023/04/17 16:06:10;;;;;;;1.70;1.60;;;12.70;99.90;;;;;;4963505;28;20573;-69
2023/04/17 16:08:36;;;;;;;2.23;2.13;;;12.60;99.90;;;;;;4976812;28;20450;-72
2023/04/17 16:11:01;;;;;;;1.67;1.40;;;12.60;99.90;;;;;;4963228;28;20422;-70
2023/04/17 16:13:27;;;;;;;2.97;2.70;;;12.50;99.90;;;;;;4954930;29;20447;-70
2023/04/17 16:15:53;;;;;;;1.90;1.80;;;12.50;99.90;;;;;;4954640;29;20219;-66
2023/04/17 16:18:18;;;;;;;1.23;1.20;;;12.50;99.90;;;;;;4960282;28;20179;-70
2023/04/17 16:20:44;;;;;;;1.77;1.67;;;12.50;99.90;;;;;;4976475;28;20179;-69
2023/04/17 16:23:10;;;;;;;1.77;1.67;;;12.40;99.90;;;;;;4947501;29;20202;-70
2023/04/17 16:25:35;;;;;;;2.00;1.60;;;12.40;99.90;;;;;;4956299;29;20472;-66
2023/04/17 16:28:02;;;;;;;1.50;1.40;;;12.30;99.90;;;;;;4956285;29;20174;-66
2023/04/17 16:30:27;;;;;;;1.47;1.47;;;12.30;99.90;;;;;;4956399;29;20725;-68
2023/04/17 16:32:53;;;;;;;1.80;1.70;;;12.30;99.90;;;;;;4956503;29;20539;-67
2023/04/17 16:35:19;;;;;;;1.27;1.27;;;12.30;99.90;;;;;;4956623;29;20282;-69
2023/04/17 16:37:44;;;;;;;1.50;1.40;;;12.30;99.90;;;;;;4955704;29;20176;-68
2023/04/17 16:40:11;;;;;;;1.50;1.40;;;12.30;99.90;;;;;;4969494;28;20183;-69
2023/04/17 16:42:37;;;;;;;1.60;1.50;;;12.20;99.90;;;;;;4975849;28;20252;-68
2023/04/17 16:45:03;;;;;;;2.30;1.60;;;12.20;99.90;;;;;;4958825;28;20454;-69
2023/04/17 16:47:29;;;;;;;1.33;1.23;;;12.20;99.90;;;;;;4956358;29;20275;-66
2023/04/17 16:49:54;;;;;;;1.47;1.37;;;12.20;99.90;;;;;;4956301;29;20512;-69
2023/04/17 16:52:20;;;;;;;1.87;1.77;;;12.10;99.90;;;;;;4956304;29;20728;-71